sensor_id;sensor_type;location;lat;lon;timestamp;pressure;altitude;pressure_sealevel;temperature;humidity
45888;BME280;31595;51.418;7.572;2022-07-23T00:00:25;100523.91;;;19.75;69.38
45888;BME280;31595;51.418;7.572;2022-07-23T00:02:53;100524.63;;;19.72;69.27
45888;BME280;31595;51.418;7.572;2022-07-23T00:05:20;100517.69;;;19.69;69.91
45888;BME280;31595;51.418;7.572;2022-07-23T00:07:47;100513.31;;;19.72;69.81
45888;BME280;31595;51.418;7.572;2022-07-23T00:10:16;100507.19;;;19.70;69.94
45888;BME280;31595;51.418;7.572;2022-07-23T00:12:44;100516.81;;;19.65;70.22
45888;BME280;31595;51.418;7.572;2022-07-23T00:15:11;100527.66;;;19.63;69.82
45888;BME280;31595;51.418;7.572;2022-07-23T00:17:38;100533.19;;;19.56;70.21
45888;BME280;31595;51.418;7.572;2022-07-23T00:20:07;100546.03;;;19.30;74.56
45888;BME280;31595;51.418;7.572;2022-07-23T00:22:34;100557.06;;;19.00;77.91
45888;BME280;31595;51.418;7.572;2022-07-23T00:25:02;100538.00;;;18.77;78.21
45888;BME280;31595;51.418;7.572;2022-07-23T00:27:31;100522.81;;;18.66;76.82
45888;BME280;31595;51.418;7.572;2022-07-23T00:29:58;100513.53;;;18.65;76.71
45888;BME280;31595;51.418;7.572;2022-07-23T00:32:25;100519.28;;;18.69;77.58
45888;BME280;31595;51.418;7.572;2022-07-23T00:34:53;100506.44;;;18.72;77.96
45888;BME280;31595;51.418;7.572;2022-07-23T00:37:20;100512.97;;;18.76;78.52
45888;BME280;31595;51.418;7.572;2022-07-23T00:39:47;100512.25;;;18.79;78.14
45888;BME280;31595;51.418;7.572;2022-07-23T00:42:15;100511.78;;;18.77;76.64
45888;BME280;31595;51.418;7.572;2022-07-23T00:44:43;100510.59;;;18.78;77.39
45888;BME280;31595;51.418;7.572;2022-07-23T00:47:11;100509.88;;;18.81;77.52
45888;BME280;31595;51.418;7.572;2022-07-23T00:49:38;100516.31;;;18.81;77.79
45888;BME280;31595;51.418;7.572;2022-07-23T00:52:05;100506.69;;;18.82;77.26
45888;BME280;31595;51.418;7.572;2022-07-23T00:54:33;100507.94;;;18.85;77.70
45888;BME280;31595;51.418;7.572;2022-07-23T00:57:01;100493.13;;;18.88;76.74
45888;BME280;31595;51.418;7.572;2022-07-23T00:59:28;100496.84;;;18.92;76.31
45888;BME280;31595;51.418;7.572;2022-07-23T01:01:57;100492.81;;;18.93;75.97
45888;BME280;31595;51.418;7.572;2022-07-23T01:04:24;100490.75;;;18.90;76.00
45888;BME280;31595;51.418;7.572;2022-07-23T01:06:52;100485.91;;;18.91;76.98
45888;BME280;31595;51.418;7.572;2022-07-23T01:09:19;100481.50;;;18.93;76.74
45888;BME280;31595;51.418;7.572;2022-07-23T01:11:47;100490.75;;;18.90;76.52
45888;BME280;31595;51.418;7.572;2022-07-23T01:14:16;100485.53;;;18.92;76.08
45888;BME280;31595;51.418;7.572;2022-07-23T01:16:45;100482.63;;;18.89;76.00
45888;BME280;31595;51.418;7.572;2022-07-23T01:19:15;100478.47;;;18.82;76.09
45888;BME280;31595;51.418;7.572;2022-07-23T01:21:46;100476.81;;;18.81;76.51
45888;BME280;31595;51.418;7.572;2022-07-23T01:24:15;100476.47;;;18.83;76.25
45888;BME280;31595;51.418;7.572;2022-07-23T01:26:45;100479.72;;;18.85;76.16
45888;BME280;31595;51.418;7.572;2022-07-23T01:29:14;100475.72;;;18.86;76.40
45888;BME280;31595;51.418;7.572;2022-07-23T01:31:41;100484.19;;;18.86;76.49
45888;BME280;31595;51.418;7.572;2022-07-23T01:34:09;100482.56;;;18.85;76.25
45888;BME280;31595;51.418;7.572;2022-07-23T01:36:37;100489.41;;;18.84;76.09
45888;BME280;31595;51.418;7.572;2022-07-23T01:39:06;100494.97;;;18.80;75.92
45888;BME280;31595;51.418;7.572;2022-07-23T01:41:35;100494.59;;;18.82;75.59
45888;BME280;31595;51.418;7.572;2022-07-23T01:44:02;100481.66;;;18.81;75.83
45888;BME280;31595;51.418;7.572;2022-07-23T01:46:30;100474.38;;;18.80;75.75
45888;BME280;31595;51.418;7.572;2022-07-23T01:48:57;100463.91;;;18.80;75.98
45888;BME280;31595;51.418;7.572;2022-07-23T01:51:24;100464.72;;;18.81;75.95
45888;BME280;31595;51.418;7.572;2022-07-23T01:53:51;100465.94;;;18.80;76.39
45888;BME280;31595;51.418;7.572;2022-07-23T01:56:22;100462.28;;;18.79;76.23
45888;BME280;31595;51.418;7.572;2022-07-23T01:58:50;100453.44;;;18.81;76.12
45888;BME280;31595;51.418;7.572;2022-07-23T02:01:18;100447.78;;;18.81;76.08
45888;BME280;31595;51.418;7.572;2022-07-23T02:03:45;100442.16;;;18.81;75.94
45888;BME280;31595;51.418;7.572;2022-07-23T02:06:12;100455.81;;;18.79;76.56
45888;BME280;31595;51.418;7.572;2022-07-23T02:08:40;100453.25;;;18.74;76.42
45888;BME280;31595;51.418;7.572;2022-07-23T02:11:07;100460.97;;;18.77;76.48
45888;BME280;31595;51.418;7.572;2022-07-23T02:13:34;100458.16;;;18.77;76.40
45888;BME280;31595;51.418;7.572;2022-07-23T02:16:03;100459.00;;;18.77;76.36
45888;BME280;31595;51.418;7.572;2022-07-23T02:18:31;100450.88;;;18.76;76.71
45888;BME280;31595;51.418;7.572;2022-07-23T02:20:58;100465.34;;;18.74;76.20
45888;BME280;31595;51.418;7.572;2022-07-23T02:23:25;100453.63;;;18.72;76.32
45888;BME280;31595;51.418;7.572;2022-07-23T02:25:52;100450.44;;;18.74;76.35
45888;BME280;31595;51.418;7.572;2022-07-23T02:28:20;100455.91;;;18.66;76.12
45888;BME280;31595;51.418;7.572;2022-07-23T02:30:47;100455.09;;;18.66;76.21
45888;BME280;31595;51.418;7.572;2022-07-23T02:33:16;100459.94;;;18.65;76.02
45888;BME280;31595;51.418;7.572;2022-07-23T02:35:43;100447.75;;;18.61;76.26
45888;BME280;31595;51.418;7.572;2022-07-23T02:38:10;100447.97;;;18.53;76.31
45888;BME280;31595;51.418;7.572;2022-07-23T02:40:38;100442.34;;;18.53;76.26
45888;BME280;31595;51.418;7.572;2022-07-23T02:43:05;100452.72;;;18.49;76.56
45888;BME280;31595;51.418;7.572;2022-07-23T02:45:32;100459.06;;;18.45;76.91
45888;BME280;31595;51.418;7.572;2022-07-23T02:48:00;100463.19;;;18.48;77.02
45888;BME280;31595;51.418;7.572;2022-07-23T02:50:28;100452.72;;;18.49;77.09
45888;BME280;31595;51.418;7.572;2022-07-23T02:52:56;100462.28;;;18.44;77.00
45888;BME280;31595;51.418;7.572;2022-07-23T02:55:23;100465.47;;;18.42;77.02
45888;BME280;31595;51.418;7.572;2022-07-23T02:57:51;100457.22;;;18.34;76.94
45888;BME280;31595;51.418;7.572;2022-07-23T03:00:18;100452.88;;;18.20;77.07
45888;BME280;31595;51.418;7.572;2022-07-23T03:02:45;100444.53;;;18.08;77.44
45888;BME280;31595;51.418;7.572;2022-07-23T03:05:13;100450.44;;;18.03;77.41
45888;BME280;31595;51.418;7.572;2022-07-23T03:07:41;100454.00;;;18.00;77.32
45888;BME280;31595;51.418;7.572;2022-07-23T03:10:09;100449.38;;;17.92;77.62
45888;BME280;31595;51.418;7.572;2022-07-23T03:12:36;100451.00;;;17.93;77.64
45888;BME280;31595;51.418;7.572;2022-07-23T03:15:04;100452.91;;;17.89;77.54
45888;BME280;31595;51.418;7.572;2022-07-23T03:17:32;100452.47;;;17.87;77.44
45888;BME280;31595;51.418;7.572;2022-07-23T03:19:59;100457.53;;;17.81;77.71
45888;BME280;31595;51.418;7.572;2022-07-23T03:22:26;100455.88;;;17.80;77.40
45888;BME280;31595;51.418;7.572;2022-07-23T03:24:55;100462.63;;;17.75;77.61
45888;BME280;31595;51.418;7.572;2022-07-23T03:27:23;100462.91;;;17.70;77.67
45888;BME280;31595;51.418;7.572;2022-07-23T03:29:52;100454.06;;;17.72;77.53
45888;BME280;31595;51.418;7.572;2022-07-23T03:32:19;100459.63;;;17.68;77.47
45888;BME280;31595;51.418;7.572;2022-07-23T03:34:47;100467.88;;;17.61;77.60
45888;BME280;31595;51.418;7.572;2022-07-23T03:37:15;100458.53;;;17.57;77.98
45888;BME280;31595;51.418;7.572;2022-07-23T03:39:42;100461.63;;;17.52;78.24
45888;BME280;31595;51.418;7.572;2022-07-23T03:42:11;100447.88;;;17.50;77.93
45888;BME280;31595;51.418;7.572;2022-07-23T03:44:38;100451.69;;;17.42;78.10
45888;BME280;31595;51.418;7.572;2022-07-23T03:47:06;100441.88;;;17.36;77.97
45888;BME280;31595;51.418;7.572;2022-07-23T03:49:34;100449.50;;;17.35;78.08
45888;BME280;31595;51.418;7.572;2022-07-23T03:52:01;100449.97;;;17.37;78.18
45888;BME280;31595;51.418;7.572;2022-07-23T03:54:29;100450.78;;;17.38;78.64
45888;BME280;31595;51.418;7.572;2022-07-23T03:56:56;100457.69;;;17.40;78.82
45888;BME280;31595;51.418;7.572;2022-07-23T03:59:25;100455.78;;;17.44;79.18
45888;BME280;31595;51.418;7.572;2022-07-23T04:01:52;100461.97;;;17.50;79.04
45888;BME280;31595;51.418;7.572;2022-07-23T04:04:19;100474.59;;;17.56;79.27
45888;BME280;31595;51.418;7.572;2022-07-23T04:06:46;100462.25;;;17.61;79.73
45888;BME280;31595;51.418;7.572;2022-07-23T04:09:14;100462.91;;;17.70;79.66
45888;BME280;31595;51.418;7.572;2022-07-23T04:11:41;100460.72;;;17.79;79.19
45888;BME280;31595;51.418;7.572;2022-07-23T04:14:08;100467.75;;;17.85;78.92
45888;BME280;31595;51.418;7.572;2022-07-23T04:16:37;100464.94;;;17.85;78.81
45888;BME280;31595;51.418;7.572;2022-07-23T04:19:04;100474.34;;;17.77;78.96
45888;BME280;31595;51.418;7.572;2022-07-23T04:21:32;100472.56;;;17.85;78.57
45888;BME280;31595;51.418;7.572;2022-07-23T04:23:59;100471.47;;;17.90;78.51
45888;BME280;31595;51.418;7.572;2022-07-23T04:26:26;100464.25;;;17.76;78.93
45888;BME280;31595;51.418;7.572;2022-07-23T04:28:53;100475.97;;;17.78;78.98
45888;BME280;31595;51.418;7.572;2022-07-23T04:31:21;100465.53;;;17.79;79.28
45888;BME280;31595;51.418;7.572;2022-07-23T04:33:50;100466.19;;;17.88;79.11
45888;BME280;31595;51.418;7.572;2022-07-23T04:36:17;100469.19;;;17.95;78.85
45888;BME280;31595;51.418;7.572;2022-07-23T04:38:44;100473.44;;;18.05;78.69
45888;BME280;31595;51.418;7.572;2022-07-23T04:41:12;100474.09;;;18.14;78.21
45888;BME280;31595;51.418;7.572;2022-07-23T04:43:39;100480.34;;;18.23;77.90
45888;BME280;31595;51.418;7.572;2022-07-23T04:46:06;100475.75;;;18.35;77.25
45888;BME280;31595;51.418;7.572;2022-07-23T04:48:34;100485.94;;;18.39;77.06
45888;BME280;31595;51.418;7.572;2022-07-23T04:51:03;100486.22;;;18.50;77.02
45888;BME280;31595;51.418;7.572;2022-07-23T04:53:30;100479.16;;;18.60;76.88
45888;BME280;31595;51.418;7.572;2022-07-23T04:55:57;100488.59;;;18.67;76.21
45888;BME280;31595;51.418;7.572;2022-07-23T04:58:25;100488.75;;;18.75;75.66
45888;BME280;31595;51.418;7.572;2022-07-23T05:00:52;100492.94;;;18.81;75.65
45888;BME280;31595;51.418;7.572;2022-07-23T05:03:19;100505.03;;;18.81;75.25
45888;BME280;31595;51.418;7.572;2022-07-23T05:05:47;100503.50;;;18.84;74.85
45888;BME280;31595;51.418;7.572;2022-07-23T05:08:16;100506.78;;;18.86;74.69
45888;BME280;31595;51.418;7.572;2022-07-23T05:10:44;100508.03;;;18.89;74.68
45888;BME280;31595;51.418;7.572;2022-07-23T05:13:11;100513.75;;;18.92;74.48
45888;BME280;31595;51.418;7.572;2022-07-23T05:15:38;100508.56;;;18.94;74.50
45888;BME280;31595;51.418;7.572;2022-07-23T05:18:06;100516.38;;;19.01;74.09
45888;BME280;31595;51.418;7.572;2022-07-23T05:20:33;100518.06;;;19.05;73.74
45888;BME280;31595;51.418;7.572;2022-07-23T05:23:07;100518.22;;;19.13;73.59
45888;BME280;31595;51.418;7.572;2022-07-23T05:25:37;100519.09;;;19.17;73.46
45888;BME280;31595;51.418;7.572;2022-07-23T05:28:04;100515.78;;;19.11;73.54
45888;BME280;31595;51.418;7.572;2022-07-23T05:30:32;100520.22;;;19.12;73.46
45888;BME280;31595;51.418;7.572;2022-07-23T05:32:59;100529.06;;;19.11;73.31
45888;BME280;31595;51.418;7.572;2022-07-23T05:35:26;100533.09;;;19.10;73.18
45888;BME280;31595;51.418;7.572;2022-07-23T05:37:54;100534.69;;;19.11;73.52
45888;BME280;31595;51.418;7.572;2022-07-23T05:40:21;100535.53;;;19.11;72.74
45888;BME280;31595;51.418;7.572;2022-07-23T05:42:50;100527.53;;;19.13;72.72
45888;BME280;31595;51.418;7.572;2022-07-23T05:45:17;100540.59;;;19.21;72.67
45888;BME280;31595;51.418;7.572;2022-07-23T05:47:46;100541.09;;;19.27;71.88
45888;BME280;31595;51.418;7.572;2022-07-23T05:50:14;100535.09;;;19.29;71.65
45888;BME280;31595;51.418;7.572;2022-07-23T05:52:42;100534.78;;;19.34;72.28
45888;BME280;31595;51.418;7.572;2022-07-23T05:55:11;100533.69;;;19.38;71.67
45888;BME280;31595;51.418;7.572;2022-07-23T05:57:39;100542.59;;;19.40;71.42
45888;BME280;31595;51.418;7.572;2022-07-23T06:00:09;100543.78;;;19.39;70.92
45888;BME280;31595;51.418;7.572;2022-07-23T06:02:37;100549.41;;;19.39;71.50
45888;BME280;31595;51.418;7.572;2022-07-23T06:05:06;100552.44;;;19.50;71.00
45888;BME280;31595;51.418;7.572;2022-07-23T06:07:35;100545.69;;;19.55;70.90
45888;BME280;31595;51.418;7.572;2022-07-23T06:10:03;100552.97;;;19.56;71.03
45888;BME280;31595;51.418;7.572;2022-07-23T06:12:31;100555.03;;;19.59;71.20
45888;BME280;31595;51.418;7.572;2022-07-23T06:14:58;100551.59;;;19.69;70.47
45888;BME280;31595;51.418;7.572;2022-07-23T06:17:27;100553.72;;;19.72;69.96
45888;BME280;31595;51.418;7.572;2022-07-23T06:19:55;100558.31;;;19.80;69.29
45888;BME280;31595;51.418;7.572;2022-07-23T06:22:23;100556.00;;;19.86;68.65
45888;BME280;31595;51.418;7.572;2022-07-23T06:24:50;100554.84;;;19.91;68.17
45888;BME280;31595;51.418;7.572;2022-07-23T06:27:18;100557.38;;;19.96;68.40
45888;BME280;31595;51.418;7.572;2022-07-23T06:29:45;100556.75;;;20.06;68.30
45888;BME280;31595;51.418;7.572;2022-07-23T06:32:12;100548.81;;;20.15;68.22
45888;BME280;31595;51.418;7.572;2022-07-23T06:34:41;100557.81;;;20.21;67.50
45888;BME280;31595;51.418;7.572;2022-07-23T06:37:08;100557.69;;;20.14;67.67
45888;BME280;31595;51.418;7.572;2022-07-23T06:39:36;100557.38;;;20.19;66.75
45888;BME280;31595;51.418;7.572;2022-07-23T06:42:03;100564.47;;;20.32;65.75
45888;BME280;31595;51.418;7.572;2022-07-23T06:44:31;100562.22;;;20.41;65.91
45888;BME280;31595;51.418;7.572;2022-07-23T06:46:58;100570.81;;;20.48;66.26
45888;BME280;31595;51.418;7.572;2022-07-23T06:49:25;100570.53;;;20.57;65.59
45888;BME280;31595;51.418;7.572;2022-07-23T06:51:54;100576.38;;;20.68;65.75
45888;BME280;31595;51.418;7.572;2022-07-23T06:54:21;100573.25;;;20.73;65.53
45888;BME280;31595;51.418;7.572;2022-07-23T06:56:49;100571.72;;;20.79;65.30
45888;BME280;31595;51.418;7.572;2022-07-23T06:59:17;100580.69;;;20.85;64.20
45888;BME280;31595;51.418;7.572;2022-07-23T07:01:44;100572.09;;;20.78;63.86
45888;BME280;31595;51.418;7.572;2022-07-23T07:04:11;100579.44;;;20.82;64.10
45888;BME280;31595;51.418;7.572;2022-07-23T07:06:39;100571.38;;;20.84;63.86
45888;BME280;31595;51.418;7.572;2022-07-23T07:09:08;100573.59;;;20.98;63.36
45888;BME280;31595;51.418;7.572;2022-07-23T07:11:35;100580.41;;;21.24;63.51
45888;BME280;31595;51.418;7.572;2022-07-23T07:14:02;100584.44;;;21.23;62.39
45888;BME280;31595;51.418;7.572;2022-07-23T07:16:30;100580.94;;;21.03;63.23
45888;BME280;31595;51.418;7.572;2022-07-23T07:18:57;100584.44;;;20.93;62.81
45888;BME280;31595;51.418;7.572;2022-07-23T07:21:24;100591.13;;;21.07;62.80
45888;BME280;31595;51.418;7.572;2022-07-23T07:23:52;100592.91;;;21.19;62.05
45888;BME280;31595;51.418;7.572;2022-07-23T07:26:20;100594.34;;;21.36;62.45
45888;BME280;31595;51.418;7.572;2022-07-23T07:28:48;100587.34;;;21.60;61.88
45888;BME280;31595;51.418;7.572;2022-07-23T07:31:15;100588.19;;;21.61;61.18
45888;BME280;31595;51.418;7.572;2022-07-23T07:33:43;100592.38;;;21.40;61.88
45888;BME280;31595;51.418;7.572;2022-07-23T07:36:10;100599.88;;;21.25;62.33
45888;BME280;31595;51.418;7.572;2022-07-23T07:38:37;100600.69;;;21.26;62.46
45888;BME280;31595;51.418;7.572;2022-07-23T07:41:05;100597.97;;;21.37;61.40
45888;BME280;31595;51.418;7.572;2022-07-23T07:43:35;100603.50;;;21.56;60.99
45888;BME280;31595;51.418;7.572;2022-07-23T07:46:03;100598.81;;;22.05;59.38
45888;BME280;31595;51.418;7.572;2022-07-23T07:48:30;100598.81;;;22.05;58.79
45888;BME280;31595;51.418;7.572;2022-07-23T07:50:57;100609.47;;;22.63;57.96
45888;BME280;31595;51.418;7.572;2022-07-23T07:53:24;100607.03;;;23.24;56.42
45888;BME280;31595;51.418;7.572;2022-07-23T07:55:52;100612.78;;;23.32;55.88
45888;BME280;31595;51.418;7.572;2022-07-23T07:58:19;100609.22;;;23.60;55.96
45888;BME280;31595;51.418;7.572;2022-07-23T08:00:48;100612.63;;;23.83;54.47
45888;BME280;31595;51.418;7.572;2022-07-23T08:03:15;100617.97;;;24.35;52.84
45888;BME280;31595;51.418;7.572;2022-07-23T08:05:42;100617.97;;;25.00;50.27
45888;BME280;31595;51.418;7.572;2022-07-23T08:08:10;100611.78;;;25.30;51.19
45888;BME280;31595;51.418;7.572;2022-07-23T08:10:41;100617.50;;;25.30;49.79
45888;BME280;31595;51.418;7.572;2022-07-23T08:13:12;100616.75;;;24.97;50.85
45888;BME280;31595;51.418;7.572;2022-07-23T08:15:40;100616.75;;;24.94;51.36
45888;BME280;31595;51.418;7.572;2022-07-23T08:18:09;100627.28;;;25.15;50.90
45888;BME280;31595;51.418;7.572;2022-07-23T08:20:37;100622.47;;;24.97;51.33
45888;BME280;31595;51.418;7.572;2022-07-23T08:23:06;100625.69;;;25.03;50.13
45888;BME280;31595;51.418;7.572;2022-07-23T08:25:36;100622.44;;;25.04;49.13
45888;BME280;31595;51.418;7.572;2022-07-23T08:28:05;100617.78;;;26.35;47.20
45888;BME280;31595;51.418;7.572;2022-07-23T08:30:33;100624.25;;;27.67;44.07
45888;BME280;31595;51.418;7.572;2022-07-23T08:33:03;100630.94;;;28.92;40.91
45888;BME280;31595;51.418;7.572;2022-07-23T08:35:33;100629.34;;;30.31;40.05
45888;BME280;31595;51.418;7.572;2022-07-23T08:38:04;100624.66;;;31.62;37.22
45888;BME280;31595;51.418;7.572;2022-07-23T08:40:33;100622.84;;;32.96;34.10
45888;BME280;31595;51.418;7.572;2022-07-23T08:43:03;100620.91;;;33.94;31.81
45888;BME280;31595;51.418;7.572;2022-07-23T08:45:36;100635.13;;;33.88;32.95
45888;BME280;31595;51.418;7.572;2022-07-23T08:48:06;100625.84;;;33.93;32.42
45888;BME280;31595;51.418;7.572;2022-07-23T08:50:35;100625.94;;;34.12;30.72
45888;BME280;31595;51.418;7.572;2022-07-23T08:53:06;100626.44;;;34.51;29.66
45888;BME280;31595;51.418;7.572;2022-07-23T08:55:33;100629.91;;;33.30;30.93
45888;BME280;31595;51.418;7.572;2022-07-23T08:58:01;100624.03;;;32.86;32.11
45888;BME280;31595;51.418;7.572;2022-07-23T09:00:29;100624.09;;;32.60;32.42
45888;BME280;31595;51.418;7.572;2022-07-23T09:02:57;100629.34;;;31.98;34.18
45888;BME280;31595;51.418;7.572;2022-07-23T09:05:24;100626.47;;;31.26;35.09
45888;BME280;31595;51.418;7.572;2022-07-23T09:08:05;100631.75;;;30.82;35.37
45888;BME280;31595;51.418;7.572;2022-07-23T09:10:46;100629.00;;;30.62;35.98
45888;BME280;31595;51.418;7.572;2022-07-23T09:13:27;100627.25;;;31.85;34.14
45888;BME280;31595;51.418;7.572;2022-07-23T09:15:56;100625.78;;;31.51;34.52
45888;BME280;31595;51.418;7.572;2022-07-23T09:18:35;100630.13;;;31.98;33.72
45888;BME280;31595;51.418;7.572;2022-07-23T09:21:13;100633.88;;;32.11;33.76
45888;BME280;31595;51.418;7.572;2022-07-23T09:23:44;100626.69;;;31.78;32.95
45888;BME280;31595;51.418;7.572;2022-07-23T09:26:30;100631.19;;;31.49;32.97
45888;BME280;31595;51.418;7.572;2022-07-23T09:29:00;100628.03;;;33.58;30.71
45888;BME280;31595;51.418;7.572;2022-07-23T09:31:32;100623.97;;;34.71;29.87
45888;BME280;31595;51.418;7.572;2022-07-23T09:34:07;100624.03;;;35.45;27.66
45888;BME280;31595;51.418;7.572;2022-07-23T09:36:35;100625.00;;;35.33;27.04
45888;BME280;31595;51.418;7.572;2022-07-23T09:39:04;100623.69;;;35.43;27.00
45888;BME280;31595;51.418;7.572;2022-07-23T09:41:40;100623.28;;;36.72;24.93
45888;BME280;31595;51.418;7.572;2022-07-23T09:44:18;100622.16;;;35.94;25.85
45888;BME280;31595;51.418;7.572;2022-07-23T09:46:47;100622.28;;;36.09;26.51
45888;BME280;31595;51.418;7.572;2022-07-23T09:49:20;100635.38;;;36.95;25.73
45888;BME280;31595;51.418;7.572;2022-07-23T09:51:52;100624.94;;;38.26;23.38
45888;BME280;31595;51.418;7.572;2022-07-23T09:54:27;100626.47;;;37.62;23.88
45888;BME280;31595;51.418;7.572;2022-07-23T09:56:57;100624.53;;;36.81;25.83
45888;BME280;31595;51.418;7.572;2022-07-23T09:59:27;100622.28;;;37.24;25.62
45888;BME280;31595;51.418;7.572;2022-07-23T10:01:56;100622.22;;;38.72;23.22
45888;BME280;31595;51.418;7.572;2022-07-23T10:04:27;100619.47;;;39.71;22.01
45888;BME280;31595;51.418;7.572;2022-07-23T10:06:56;100624.16;;;40.58;21.66
45888;BME280;31595;51.418;7.572;2022-07-23T10:09:29;100619.94;;;40.65;20.04
45888;BME280;31595;51.418;7.572;2022-07-23T10:11:59;100622.22;;;39.54;21.82
45888;BME280;31595;51.418;7.572;2022-07-23T10:14:40;100623.59;;;38.42;23.17
45888;BME280;31595;51.418;7.572;2022-07-23T10:17:06;100620.97;;;38.08;23.82
45888;BME280;31595;51.418;7.572;2022-07-23T10:19:34;100625.16;;;37.92;24.05
45888;BME280;31595;51.418;7.572;2022-07-23T10:22:04;100623.75;;;37.19;24.79
45888;BME280;31595;51.418;7.572;2022-07-23T10:24:58;100624.91;;;37.22;24.57
45888;BME280;31595;51.418;7.572;2022-07-23T10:30:41;100618.69;;;40.34;21.18
45888;BME280;31595;51.418;7.572;2022-07-23T10:33:21;100612.38;;;41.95;19.23
45888;BME280;31595;51.418;7.572;2022-07-23T10:35:57;100602.81;;;42.23;17.75
45888;BME280;31595;51.418;7.572;2022-07-23T10:38:30;100603.91;;;43.07;17.01
45888;BME280;31595;51.418;7.572;2022-07-23T10:41:04;100610.50;;;42.54;17.60
45888;BME280;31595;51.418;7.572;2022-07-23T10:43:32;100612.66;;;42.14;17.84
45888;BME280;31595;51.418;7.572;2022-07-23T10:46:20;100621.47;;;43.18;17.39
45888;BME280;31595;51.418;7.572;2022-07-23T10:49:26;100610.22;;;42.52;17.71
45888;BME280;31595;51.418;7.572;2022-07-23T10:52:18;100614.53;;;41.78;18.75
45888;BME280;31595;51.418;7.572;2022-07-23T10:54:48;100611.59;;;42.23;18.15
45888;BME280;31595;51.418;7.572;2022-07-23T10:57:19;100615.88;;;42.28;17.98
45888;BME280;31595;51.418;7.572;2022-07-23T11:00:16;100608.81;;;43.40;17.17
45888;BME280;31595;51.418;7.572;2022-07-23T11:02:48;100609.94;;;44.09;16.61
45888;BME280;31595;51.418;7.572;2022-07-23T11:05:17;100606.06;;;44.50;16.15
45888;BME280;31595;51.418;7.572;2022-07-23T11:08:13;100599.56;;;44.82;16.04
45888;BME280;31595;51.418;7.572;2022-07-23T11:10:45;100595.31;;;45.21;15.56
45888;BME280;31595;51.418;7.572;2022-07-23T11:13:37;100589.53;;;45.85;15.02
45888;BME280;31595;51.418;7.572;2022-07-23T11:19:06;100593.75;;;46.62;14.57
45888;BME280;31595;51.418;7.572;2022-07-23T11:21:57;100593.09;;;46.96;14.13
45888;BME280;31595;51.418;7.572;2022-07-23T11:24:25;100585.72;;;46.49;15.08
45888;BME280;31595;51.418;7.572;2022-07-23T11:26:55;100588.66;;;47.03;14.81
45888;BME280;31595;51.418;7.572;2022-07-23T11:29:53;100590.09;;;47.23;14.19
45888;BME280;31595;51.418;7.572;2022-07-23T11:32:29;100595.69;;;46.73;14.15
45888;BME280;31595;51.418;7.572;2022-07-23T11:34:57;100599.41;;;46.33;13.83
45888;BME280;31595;51.418;7.572;2022-07-23T11:37:28;100587.13;;;44.51;15.07
45888;BME280;31595;51.418;7.572;2022-07-23T11:39:55;100595.28;;;44.09;15.66
45888;BME280;31595;51.418;7.572;2022-07-23T11:42:23;100593.63;;;43.83;16.32
45888;BME280;31595;51.418;7.572;2022-07-23T11:44:51;100589.53;;;44.22;16.29
45888;BME280;31595;51.418;7.572;2022-07-23T11:47:23;100590.16;;;44.15;15.63
45888;BME280;31595;51.418;7.572;2022-07-23T11:49:55;100596.16;;;43.15;16.15
45888;BME280;31595;51.418;7.572;2022-07-23T11:52:23;100585.72;;;42.61;16.41
45888;BME280;31595;51.418;7.572;2022-07-23T11:54:53;100582.53;;;42.59;16.78
45888;BME280;31595;51.418;7.572;2022-07-23T11:57:25;100590.75;;;42.72;17.27
45888;BME280;31595;51.418;7.572;2022-07-23T11:59:55;100587.63;;;43.11;16.93
45888;BME280;31595;51.418;7.572;2022-07-23T12:02:24;100583.84;;;43.28;16.60
45888;BME280;31595;51.418;7.572;2022-07-23T12:04:52;100581.94;;;43.72;15.69
45888;BME280;31595;51.418;7.572;2022-07-23T12:07:28;100586.84;;;43.94;16.57
45888;BME280;31595;51.418;7.572;2022-07-23T12:09:56;100589.78;;;44.24;15.29
45888;BME280;31595;51.418;7.572;2022-07-23T12:12:24;100580.19;;;43.93;15.95
45888;BME280;31595;51.418;7.572;2022-07-23T12:14:55;100587.09;;;43.60;16.29
45888;BME280;31595;51.418;7.572;2022-07-23T12:17:29;100589.94;;;43.35;16.20
45888;BME280;31595;51.418;7.572;2022-07-23T12:19:59;100586.25;;;43.29;15.84
45888;BME280;31595;51.418;7.572;2022-07-23T12:22:35;100583.06;;;43.69;15.26
45888;BME280;31595;51.418;7.572;2022-07-23T12:25:06;100587.41;;;43.87;15.13
45888;BME280;31595;51.418;7.572;2022-07-23T12:27:35;100587.81;;;43.72;16.24
45888;BME280;31595;51.418;7.572;2022-07-23T12:30:21;100584.44;;;43.92;15.34
45888;BME280;31595;51.418;7.572;2022-07-23T12:32:51;100581.13;;;43.77;15.83
45888;BME280;31595;51.418;7.572;2022-07-23T12:35:20;100584.06;;;43.77;15.50
45888;BME280;31595;51.418;7.572;2022-07-23T12:37:49;100575.75;;;43.45;16.09
45888;BME280;31595;51.418;7.572;2022-07-23T12:40:20;100581.00;;;43.52;15.18
45888;BME280;31595;51.418;7.572;2022-07-23T12:42:48;100580.13;;;43.22;16.01
45888;BME280;31595;51.418;7.572;2022-07-23T12:45:17;100583.31;;;43.24;16.39
45888;BME280;31595;51.418;7.572;2022-07-23T12:47:59;100584.94;;;43.19;16.25
45888;BME280;31595;51.418;7.572;2022-07-23T12:50:34;100575.13;;;42.47;16.52
45888;BME280;31595;51.418;7.572;2022-07-23T12:53:06;100584.91;;;41.36;17.16
45888;BME280;31595;51.418;7.572;2022-07-23T12:55:35;100588.75;;;40.94;18.07
45888;BME280;31595;51.418;7.572;2022-07-23T12:58:07;100576.44;;;41.33;17.67
45888;BME280;31595;51.418;7.572;2022-07-23T13:00:58;100585.03;;;40.88;17.58
45888;BME280;31595;51.418;7.572;2022-07-23T13:03:30;100591.97;;;40.96;17.87
45888;BME280;31595;51.418;7.572;2022-07-23T13:05:58;100593.09;;;40.55;17.97
45888;BME280;31595;51.418;7.572;2022-07-23T13:08:28;100591.66;;;39.76;18.21